Time;durP1;ratioP1;P1;durP2;ratioP2;P2;SDS_P1;SDS_P2;PMS_P1;PMS_P2;Temp;Humidity;BMP_temperature;BMP_pressure;BME280_temperature;BME280_humidity;BME280_pressure;Samples;Min_cycle;Max_cycle;Signal;HPM_P1;HPM_P2
2022/01/19 00:00:07;;;;;;;43.25;30.67;;;;;;;;;;5006651;28;20021;-38
2022/01/19 00:02:33;;;;;;;42.83;30.17;;;;;;;;;;5007035;28;20026;-35
2022/01/19 00:04:58;;;;;;;39.30;28.38;;;;;;;;;;5007640;28;20030;-36
2022/01/19 00:07:24;;;;;;;40.78;29.20;;;;;;;;;;5006376;28;20116;-33
2022/01/19 00:09:49;;;;;;;40.83;29.08;;;;;;;;;;5007421;28;20029;-39
2022/01/19 00:12:15;;;;;;;41.30;28.98;;;;;;;;;;5005945;28;20081;-39
2022/01/19 00:14:40;;;;;;;40.90;28.73;;;;;;;;;;5007247;28;20736;-39
2022/01/19 00:17:06;;;;;;;38.53;27.27;;;;;;;;;;5006776;28;20056;-37
2022/01/19 00:19:31;;;;;;;39.65;27.60;;;;;;;;;;5006508;28;20026;-38
2022/01/19 00:21:57;;;;;;;36.45;26.23;;;;;;;;;;5007108;28;20033;-38
2022/01/19 00:24:22;;;;;;;39.00;26.52;;;;;;;;;;5006731;28;20026;-37
2022/01/19 00:26:48;;;;;;;37.72;26.30;;;;;;;;;;5007307;28;20084;-39
2022/01/19 00:29:13;;;;;;;38.28;26.42;;;;;;;;;;5005375;28;20029;-38
2022/01/19 00:31:38;;;;;;;34.20;25.15;;;;;;;;;;5006889;28;20083;-38
2022/01/19 00:34:04;;;;;;;33.75;24.20;;;;;;;;;;5006456;28;20058;-40
2022/01/19 00:36:30;;;;;;;32.55;23.90;;;;;;;;;;5006604;28;20117;-39
2022/01/19 00:38:55;;;;;;;35.10;24.52;;;;;;;;;;5007085;28;20033;-38
2022/01/19 00:41:21;;;;;;;30.42;22.38;;;;;;;;;;5006681;28;20025;-39
2022/01/19 00:43:46;;;;;;;31.35;22.52;;;;;;;;;;5006562;28;20022;-40
2022/01/19 00:46:12;;;;;;;33.63;23.80;;;;;;;;;;5001177;28;20416;-38
2022/01/19 00:48:40;;;;;;;31.35;23.08;;;;;;;;;;4986729;28;20030;-40
2022/01/19 00:51:05;;;;;;;31.58;22.50;;;;;;;;;;4987252;28;20401;-36
2022/01/19 00:53:31;;;;;;;33.20;23.02;;;;;;;;;;4986304;28;20029;-40
2022/01/19 00:55:56;;;;;;;29.85;21.15;;;;;;;;;;4986416;28;20035;-38
2022/01/19 00:58:22;;;;;;;30.17;21.42;;;;;;;;;;4986936;28;20019;-38
2022/01/19 01:00:48;;;;;;;29.70;21.15;;;;;;;;;;4986911;28;20121;-37
2022/01/19 01:03:13;;;;;;;30.88;21.48;;;;;;;;;;4986935;28;20032;-38
2022/01/19 01:05:39;;;;;;;29.55;20.52;;;;;;;;;;4986694;28;20047;-38
2022/01/19 01:08:04;;;;;;;26.42;19.88;;;;;;;;;;4986883;28;20403;-38
2022/01/19 01:10:31;;;;;;;29.95;20.73;;;;;;;;;;4986375;28;20416;-35
2022/01/19 01:13:16;;;;;;;25.92;19.02;;;;;;;;;;5003424;28;20065;-38
2022/01/19 01:16:03;;;;;;;24.77;18.45;;;;;;;;;;5006157;28;20033;-37
2022/01/19 01:18:29;;;;;;;25.02;18.83;;;;;;;;;;5005858;28;20083;-38
2022/01/19 01:20:56;;;;;;;24.27;17.85;;;;;;;;;;5003710;28;20037;-39
2022/01/19 01:23:23;;;;;;;23.85;17.33;;;;;;;;;;5005915;28;20026;-36
2022/01/19 01:25:49;;;;;;;23.48;17.40;;;;;;;;;;5005544;28;20026;-38
2022/01/19 01:28:15;;;;;;;24.70;17.15;;;;;;;;;;5006096;28;20032;-39
2022/01/19 01:30:40;;;;;;;23.40;17.20;;;;;;;;;;5005636;28;20033;-39
2022/01/19 01:33:06;;;;;;;20.80;15.23;;;;;;;;;;5005893;28;20041;-36
2022/01/19 01:35:31;;;;;;;20.45;14.95;;;;;;;;;;4987872;28;20177;-40
2022/01/19 01:37:57;;;;;;;20.90;16.13;;;;;;;;;;4986513;28;20109;-38
2022/01/19 01:40:25;;;;;;;21.83;15.65;;;;;;;;;;4985644;28;20041;-38
2022/01/19 01:42:54;;;;;;;22.38;16.27;;;;;;;;;;4990488;28;20028;-40
2022/01/19 01:45:25;;;;;;;20.50;15.15;;;;;;;;;;5005332;28;20026;-38
2022/01/19 01:47:58;;;;;;;19.00;14.48;;;;;;;;;;5005539;28;20025;-37
2022/01/19 01:56:13;;;;;;;17.92;13.10;;;;;;;;;;5008688;28;20052;-39
2022/01/19 01:58:41;;;;;;;17.15;12.95;;;;;;;;;;5005265;28;20040;-39
2022/01/19 02:01:07;;;;;;;18.70;13.32;;;;;;;;;;5005616;28;20455;-37
2022/01/19 02:03:38;;;;;;;17.55;12.93;;;;;;;;;;5005333;28;20512;-40
2022/01/19 02:06:29;;;;;;;16.85;12.55;;;;;;;;;;5005676;28;20052;-40
2022/01/19 02:24:28;;;;;;;15.23;11.10;;;;;;;;;;4985811;28;20034;-40
2022/01/19 02:40:16;;;;;;;13.00;9.20;;;;;;;;;;4985572;28;20041;-38
2022/01/19 02:43:07;;;;;;;13.52;9.38;;;;;;;;;;4984993;28;20031;-37
2022/01/19 02:51:02;;;;;;;14.90;10.23;;;;;;;;;;4985392;28;20037;-34
2022/01/19 02:53:28;;;;;;;13.75;10.32;;;;;;;;;;4984886;28;20042;-39
2022/01/19 02:55:53;;;;;;;13.00;10.00;;;;;;;;;;4985265;28;20034;-38
2022/01/19 02:58:22;;;;;;;12.63;9.85;;;;;;;;;;4985100;28;20141;-39
2022/01/19 03:08:59;;;;;;;12.45;9.13;;;;;;;;;;4988790;28;20614;-37
2022/01/19 03:11:25;;;;;;;12.20;9.25;;;;;;;;;;4994193;28;20034;-38
2022/01/19 03:13:50;;;;;;;12.32;9.65;;;;;;;;;;5008441;28;20022;-37
2022/01/19 03:16:19;;;;;;;12.77;9.15;;;;;;;;;;5008425;28;20032;-36
2022/01/19 03:18:45;;;;;;;10.90;8.70;;;;;;;;;;5008256;28;20181;-39
2022/01/19 03:21:11;;;;;;;11.43;8.75;;;;;;;;;;5008316;28;20022;-39
2022/01/19 03:23:36;;;;;;;10.23;7.85;;;;;;;;;;5008101;28;20030;-40
2022/01/19 03:26:06;;;;;;;10.95;8.52;;;;;;;;;;5007051;28;20030;-37
2022/01/19 03:28:32;;;;;;;9.38;7.65;;;;;;;;;;5007733;28;20022;-39
2022/01/19 03:30:58;;;;;;;9.60;8.00;;;;;;;;;;5008375;28;20447;-39
2022/01/19 03:33:23;;;;;;;8.50;7.10;;;;;;;;;;5007455;28;20073;-38
2022/01/19 03:35:49;;;;;;;9.77;7.70;;;;;;;;;;5007763;28;20030;-36
2022/01/19 03:38:14;;;;;;;10.15;7.47;;;;;;;;;;5007772;28;20504;-39
2022/01/19 03:40:40;;;;;;;10.52;7.70;;;;;;;;;;5007921;28;20081;-37
2022/01/19 03:43:06;;;;;;;9.88;7.50;;;;;;;;;;5007998;28;20100;-38
2022/01/19 03:45:33;;;;;;;9.73;7.68;;;;;;;;;;5007562;28;20030;-40
2022/01/19 03:50:44;;;;;;;10.88;7.70;;;;;;;;;;5007580;28;20032;-40
2022/01/19 03:53:09;;;;;;;9.45;7.57;;;;;;;;;;5007681;28;20041;-39
2022/01/19 03:55:35;;;;;;;10.43;7.43;;;;;;;;;;5007332;28;20034;-37
2022/01/19 03:58:00;;;;;;;8.35;6.63;;;;;;;;;;5007575;28;20029;-38
2022/01/19 04:00:28;;;;;;;7.68;6.47;;;;;;;;;;5007394;28;20034;-36
2022/01/19 04:02:53;;;;;;;8.07;6.28;;;;;;;;;;5007739;28;20704;-35
2022/01/19 04:05:38;;;;;;;8.85;6.65;;;;;;;;;;5005497;28;20069;-37
2022/01/19 04:08:04;;;;;;;8.77;6.90;;;;;;;;;;5006655;28;20037;-40
2022/01/19 04:10:29;;;;;;;10.00;6.68;;;;;;;;;;5005923;28;20101;-38
2022/01/19 04:13:08;;;;;;;7.85;6.35;;;;;;;;;;4987234;28;20261;-37
2022/01/19 04:15:34;;;;;;;8.98;7.00;;;;;;;;;;4987535;28;20030;-39
2022/01/19 04:17:59;;;;;;;9.23;6.80;;;;;;;;;;4986956;28;20041;-40
2022/01/19 04:20:26;;;;;;;9.68;6.90;;;;;;;;;;4987361;28;20108;-40
2022/01/19 04:22:52;;;;;;;8.25;6.18;;;;;;;;;;4986743;28;20030;-39
2022/01/19 04:25:17;;;;;;;9.25;5.82;;;;;;;;;;4987457;28;20038;-38
2022/01/19 04:27:44;;;;;;;8.07;6.22;;;;;;;;;;4987988;28;20034;-40
2022/01/19 04:30:12;;;;;;;9.50;6.60;;;;;;;;;;4987450;28;20496;-38
2022/01/19 04:32:50;;;;;;;8.52;6.18;;;;;;;;;;4986871;28;20034;-39
2022/01/19 04:35:20;;;;;;;8.25;5.80;;;;;;;;;;4987659;28;20555;-38
2022/01/19 05:01:52;;;;;;;6.30;5.20;;;;;;;;;;4989476;28;20040;-33
2022/01/19 05:06:54;;;;;;;5.10;4.53;;;;;;;;;;4987136;28;20038;-41
2022/01/19 05:09:55;;;;;;;6.50;4.63;;;;;;;;;;5000874;28;20497;-40
2022/01/19 05:14:58;;;;;;;6.57;4.90;;;;;;;;;;5012939;28;20129;-35
2022/01/19 05:17:24;;;;;;;8.20;4.97;;;;;;;;;;5023736;28;20408;-40
2022/01/19 05:19:50;;;;;;;6.40;4.65;;;;;;;;;;5023390;28;20033;-39
2022/01/19 05:22:16;;;;;;;6.57;4.28;;;;;;;;;;5023617;28;20037;-36
2022/01/19 05:24:41;;;;;;;5.88;4.63;;;;;;;;;;5022833;28;20031;-38
2022/01/19 05:27:07;;;;;;;8.77;4.60;;;;;;;;;;5023439;28;20029;-40
2022/01/19 05:29:32;;;;;;;10.73;4.25;;;;;;;;;;5022073;28;20025;-40
2022/01/19 05:31:58;;;;;;;6.93;3.70;;;;;;;;;;4999840;28;20092;-36
2022/01/19 05:34:23;;;;;;;7.32;3.50;;;;;;;;;;4984060;28;20887;-30
2022/01/19 05:36:49;;;;;;;7.47;3.75;;;;;;;;;;4984967;28;20034;-40
2022/01/19 05:39:14;;;;;;;9.55;3.70;;;;;;;;;;4985351;28;20081;-35
2022/01/19 05:41:39;;;;;;;10.48;3.85;;;;;;;;;;4999645;28;20030;-37
2022/01/19 05:44:05;;;;;;;8.10;3.40;;;;;;;;;;5003141;28;20034;-38
2022/01/19 05:46:32;;;;;;;9.77;3.85;;;;;;;;;;4989744;28;20041;-39
2022/01/19 05:48:58;;;;;;;11.38;3.50;;;;;;;;;;5003971;28;20044;-36
2022/01/19 05:51:23;;;;;;;7.40;4.03;;;;;;;;;;5001907;28;20041;-41
2022/01/19 05:53:49;;;;;;;13.45;3.80;;;;;;;;;;5002902;28;20391;-40
2022/01/19 05:56:14;;;;;;;11.07;3.42;;;;;;;;;;5002748;28;20037;-39
2022/01/19 05:58:40;;;;;;;8.90;3.05;;;;;;;;;;5003418;28;20037;-37
2022/01/19 06:01:05;;;;;;;7.22;3.70;;;;;;;;;;5002970;28;20068;-38
2022/01/19 06:03:31;;;;;;;9.98;3.28;;;;;;;;;;5001757;28;20173;-39
2022/01/19 06:05:56;;;;;;;9.82;3.10;;;;;;;;;;4992623;28;20455;-37
2022/01/19 06:10:48;;;;;;;9.70;3.88;;;;;;;;;;4983008;28;20034;-40
2022/01/19 06:13:17;;;;;;;10.60;3.95;;;;;;;;;;4981432;28;20085;-40
2022/01/19 06:15:44;;;;;;;6.80;3.78;;;;;;;;;;4987876;28;20046;-37
2022/01/19 06:18:09;;;;;;;9.30;4.25;;;;;;;;;;4986228;28;20038;-38
2022/01/19 06:20:35;;;;;;;10.15;4.13;;;;;;;;;;5007726;28;20038;-39
2022/01/19 06:23:01;;;;;;;11.43;4.45;;;;;;;;;;5002184;28;20033;-39
2022/01/19 06:25:26;;;;;;;11.88;4.75;;;;;;;;;;5021067;28;20503;-33
2022/01/19 06:27:52;;;;;;;8.82;4.95;;;;;;;;;;5023088;28;20033;-40
2022/01/19 06:30:17;;;;;;;10.73;5.55;;;;;;;;;;5005444;28;20030;-41
2022/01/19 06:32:43;;;;;;;11.85;5.70;;;;;;;;;;4997777;28;20113;-38
2022/01/19 06:35:08;;;;;;;14.60;6.07;;;;;;;;;;4999839;28;20488;-38
2022/01/19 06:37:34;;;;;;;10.88;5.80;;;;;;;;;;5002306;28;20068;-38
2022/01/19 06:40:00;;;;;;;15.68;5.55;;;;;;;;;;5015480;28;20512;-38
2022/01/19 06:42:25;;;;;;;11.90;6.63;;;;;;;;;;5006386;28;20038;-34
2022/01/19 06:44:51;;;;;;;12.32;6.05;;;;;;;;;;5007069;28;20523;-38
2022/01/19 06:47:16;;;;;;;12.93;6.20;;;;;;;;;;5005921;28;20041;-38
2022/01/19 06:49:42;;;;;;;14.27;5.50;;;;;;;;;;5005135;28;20531;-34
2022/01/19 06:52:07;;;;;;;9.15;5.38;;;;;;;;;;5004814;28;20618;-40
2022/01/19 06:54:33;;;;;;;11.55;5.40;;;;;;;;;;5005982;28;20030;-38
2022/01/19 06:56:58;;;;;;;14.85;6.18;;;;;;;;;;4995437;28;20081;-37
2022/01/19 06:59:24;;;;;;;11.88;5.97;;;;;;;;;;5011070;28;20029;-37
2022/01/19 07:01:50;;;;;;;12.60;5.97;;;;;;;;;;5004483;28;20030;-39
2022/01/19 07:04:16;;;;;;;12.82;5.60;;;;;;;;;;5005378;28;20033;-38
2022/01/19 07:06:42;;;;;;;11.75;4.97;;;;;;;;;;4994414;28;20030;-38
2022/01/19 07:09:08;;;;;;;9.85;4.57;;;;;;;;;;4992178;28;20033;-35
2022/01/19 07:11:35;;;;;;;9.65;4.50;;;;;;;;;;5004609;28;20030;-38
2022/01/19 07:14:01;;;;;;;9.00;4.90;;;;;;;;;;5005463;28;20515;-34
2022/01/19 07:16:27;;;;;;;6.53;3.75;;;;;;;;;;5005254;28;20034;-36
2022/01/19 07:18:52;;;;;;;6.97;4.03;;;;;;;;;;5005926;28;20451;-40
2022/01/19 07:21:18;;;;;;;13.82;7.28;;;;;;;;;;5004915;28;20038;-38
2022/01/19 07:23:43;;;;;;;15.77;9.70;;;;;;;;;;5005272;28;20419;-35
2022/01/19 07:26:09;;;;;;;15.98;9.60;;;;;;;;;;5005175;28;20113;-40
2022/01/19 07:28:34;;;;;;;15.25;10.00;;;;;;;;;;4998242;28;20481;-35
2022/01/19 07:31:00;;;;;;;18.75;10.20;;;;;;;;;;4986004;28;20029;-39
2022/01/19 07:33:25;;;;;;;14.98;10.15;;;;;;;;;;4988836;28;20438;-40
2022/01/19 07:35:51;;;;;;;13.05;9.52;;;;;;;;;;5005244;28;20022;-38
2022/01/19 07:38:23;;;;;;;14.18;9.68;;;;;;;;;;5005803;28;20757;-38
2022/01/19 07:40:49;;;;;;;16.90;10.60;;;;;;;;;;5005511;28;20044;-38
2022/01/19 07:43:15;;;;;;;15.52;9.88;;;;;;;;;;5005374;28;20121;-40
2022/01/19 07:45:40;;;;;;;16.05;10.00;;;;;;;;;;5005818;28;20108;-39
2022/01/19 07:48:06;;;;;;;14.52;10.20;;;;;;;;;;5005623;28;20057;-38
2022/01/19 07:50:32;;;;;;;14.90;9.60;;;;;;;;;;5005149;28;20416;-33
2022/01/19 07:52:58;;;;;;;15.60;10.30;;;;;;;;;;5002699;28;20592;-41
2022/01/19 07:55:24;;;;;;;14.75;10.25;;;;;;;;;;5005219;28;20030;-38
2022/01/19 07:57:51;;;;;;;14.45;9.60;;;;;;;;;;5005031;28;20029;-39
2022/01/19 08:00:17;;;;;;;13.82;9.15;;;;;;;;;;5004609;28;20514;-38
2022/01/19 08:02:44;;;;;;;13.55;9.07;;;;;;;;;;4998976;28;20040;-40
2022/01/19 08:05:09;;;;;;;12.63;8.90;;;;;;;;;;5005138;28;20125;-38
2022/01/19 08:07:35;;;;;;;13.23;9.82;;;;;;;;;;5004475;28;20030;-40
2022/01/19 08:10:05;;;;;;;14.07;9.18;;;;;;;;;;5004617;28;20033;-38
2022/01/19 08:12:30;;;;;;;12.68;8.60;;;;;;;;;;5004753;28;20073;-39
2022/01/19 08:14:58;;;;;;;12.23;8.63;;;;;;;;;;5004356;28;20091;-34
2022/01/19 08:17:26;;;;;;;11.60;8.52;;;;;;;;;;4993719;28;20034;-39
2022/01/19 08:19:52;;;;;;;12.05;8.23;;;;;;;;;;5004294;28;20107;-36
2022/01/19 08:22:18;;;;;;;10.95;8.00;;;;;;;;;;5004283;28;20037;-38
2022/01/19 08:24:43;;;;;;;12.13;8.75;;;;;;;;;;4997754;28;20035;-34
2022/01/19 08:27:09;;;;;;;12.48;8.27;;;;;;;;;;5004691;28;20107;-37
2022/01/19 08:29:35;;;;;;;9.60;7.13;;;;;;;;;;5008784;28;20423;-39
2022/01/19 08:32:00;;;;;;;10.77;7.18;;;;;;;;;;5021781;28;20128;-40
2022/01/19 08:34:26;;;;;;;16.75;9.98;;;;;;;;;;5004371;28;20054;-39
2022/01/19 08:36:51;;;;;;;13.02;8.45;;;;;;;;;;5012323;28;20034;-38
2022/01/19 08:39:18;;;;;;;16.65;11.38;;;;;;;;;;5023696;28;20029;-34
2022/01/19 08:41:43;;;;;;;24.27;13.32;;;;;;;;;;5000728;28;20521;-38
2022/01/19 08:44:09;;;;;;;21.05;12.27;;;;;;;;;;5000697;28;20097;-37
2022/01/19 08:46:35;;;;;;;20.45;11.70;;;;;;;;;;4999765;28;20041;-39
2022/01/19 08:49:00;;;;;;;15.40;10.85;;;;;;;;;;4997903;28;20611;-36
2022/01/19 08:51:26;;;;;;;18.05;11.05;;;;;;;;;;5003988;28;20130;-39
2022/01/19 08:53:51;;;;;;;16.52;10.73;;;;;;;;;;4996536;28;20477;-36
2022/01/19 08:56:17;;;;;;;16.83;11.25;;;;;;;;;;4996321;28;20123;-38
2022/01/19 08:58:42;;;;;;;15.75;9.95;;;;;;;;;;4993073;28;20049;-38
2022/01/19 09:01:08;;;;;;;14.13;10.05;;;;;;;;;;4993470;28;20121;-40
2022/01/19 09:03:33;;;;;;;15.65;9.95;;;;;;;;;;5003106;28;20770;-35
2022/01/19 09:05:59;;;;;;;16.95;9.52;;;;;;;;;;5002547;28;20029;-37
2022/01/19 09:08:24;;;;;;;16.90;9.13;;;;;;;;;;5003678;28;20476;-40
2022/01/19 09:10:53;;;;;;;12.05;8.70;;;;;;;;;;4997995;28;20025;-35
2022/01/19 09:13:18;;;;;;;14.90;9.38;;;;;;;;;;5000620;28;20090;-37
2022/01/19 09:15:44;;;;;;;11.85;8.48;;;;;;;;;;5001300;28;20026;-34
2022/01/19 09:18:09;;;;;;;14.68;8.50;;;;;;;;;;4987516;28;20481;-39
2022/01/19 09:20:35;;;;;;;11.35;8.07;;;;;;;;;;4984161;28;20609;-40
2022/01/19 09:23:02;;;;;;;13.07;7.80;;;;;;;;;;4994622;28;20036;-34
2022/01/19 09:25:28;;;;;;;11.27;7.43;;;;;;;;;;4986013;28;20031;-34
2022/01/19 09:27:53;;;;;;;12.30;7.35;;;;;;;;;;5002949;28;20026;-38
2022/01/19 09:30:21;;;;;;;10.18;6.97;;;;;;;;;;5012386;28;20021;-38
2022/01/19 09:32:55;;;;;;;11.55;7.03;;;;;;;;;;5000873;28;20288;-38
2022/01/19 09:35:24;;;;;;;9.77;6.68;;;;;;;;;;5002142;28;20120;-32
2022/01/19 09:37:50;;;;;;;12.82;7.32;;;;;;;;;;5013316;28;20033;-31
2022/01/19 09:40:15;;;;;;;14.80;7.53;;;;;;;;;;5011416;28;20099;-37
2022/01/19 09:42:44;;;;;;;11.57;7.57;;;;;;;;;;5001652;28;20061;-37
2022/01/19 09:45:09;;;;;;;12.40;6.93;;;;;;;;;;5001922;28;20105;-39
2022/01/19 09:47:35;;;;;;;14.55;7.32;;;;;;;;;;4997071;28;20632;-39
2022/01/19 09:50:00;;;;;;;12.15;7.03;;;;;;;;;;4989327;28;20034;-35
2022/01/19 09:52:26;;;;;;;12.15;6.70;;;;;;;;;;4995004;28;20093;-37
2022/01/19 09:54:53;;;;;;;9.55;6.78;;;;;;;;;;4995542;28;20045;-34
2022/01/19 09:57:19;;;;;;;11.52;7.05;;;;;;;;;;5000321;28;20419;-39
2022/01/19 09:59:45;;;;;;;10.43;6.60;;;;;;;;;;5001673;28;20038;-36
2022/01/19 10:02:10;;;;;;;10.40;6.22;;;;;;;;;;4994525;28;20428;-38
2022/01/19 10:04:44;;;;;;;10.43;6.15;;;;;;;;;;5002469;28;20099;-38
2022/01/19 10:07:20;;;;;;;9.15;6.25;;;;;;;;;;4995805;28;20042;-39
2022/01/19 10:09:54;;;;;;;8.63;6.35;;;;;;;;;;5002377;28;20025;-37
2022/01/19 10:18:06;;;;;;;9.93;5.85;;;;;;;;;;5007298;28;20141;-35
2022/01/19 10:20:32;;;;;;;8.05;5.40;;;;;;;;;;5006599;28;20029;-37
2022/01/19 10:22:57;;;;;;;9.05;5.57;;;;;;;;;;5006969;28;20022;-35
2022/01/19 10:25:23;;;;;;;9.02;5.85;;;;;;;;;;5007159;28;20037;-38
2022/01/19 10:27:48;;;;;;;8.55;5.97;;;;;;;;;;5006473;28;20037;-34
2022/01/19 10:30:19;;;;;;;8.50;5.53;;;;;;;;;;5007018;28;20029;-39
2022/01/19 10:32:50;;;;;;;9.70;5.43;;;;;;;;;;5006429;28;20583;-34
2022/01/19 10:35:38;;;;;;;9.25;5.70;;;;;;;;;;5006862;28;20041;-39
2022/01/19 10:38:14;;;;;;;8.45;5.25;;;;;;;;;;5006954;28;20457;-31
2022/01/19 10:41:02;;;;;;;8.13;5.30;;;;;;;;;;5004452;28;20057;-37
2022/01/19 10:43:36;;;;;;;9.63;5.30;;;;;;;;;;5006854;28;20065;-33
2022/01/19 10:46:21;;;;;;;7.18;4.95;;;;;;;;;;5006703;28;20577;-38
2022/01/19 10:48:46;;;;;;;6.18;4.70;;;;;;;;;;5005288;28;20109;-40
2022/01/19 10:51:16;;;;;;;7.47;5.47;;;;;;;;;;5006676;28;20041;-34
2022/01/19 10:53:44;;;;;;;7.03;4.65;;;;;;;;;;5006577;28;20040;-38
2022/01/19 10:56:29;;;;;;;7.72;4.85;;;;;;;;;;5005687;28;20030;-40
2022/01/19 10:58:59;;;;;;;6.78;4.78;;;;;;;;;;5000642;28;20084;-35
2022/01/19 11:01:48;;;;;;;7.05;4.63;;;;;;;;;;4996317;28;20021;-38
2022/01/19 11:04:26;;;;;;;8.23;4.72;;;;;;;;;;5006829;28;20084;-39
2022/01/19 11:06:54;;;;;;;10.57;4.78;;;;;;;;;;5003865;28;20044;-40
2022/01/19 11:09:24;;;;;;;23.27;6.55;;;;;;;;;;5002518;28;20038;-35
2022/01/19 11:11:50;;;;;;;53.75;7.93;;;;;;;;;;5001667;28;20042;-36
2022/01/19 11:14:16;;;;;;;53.42;10.98;;;;;;;;;;5005904;28;20145;-36
2022/01/19 11:16:42;;;;;;;35.53;9.95;;;;;;;;;;5010077;28;20083;-36
2022/01/19 11:19:09;;;;;;;40.45;9.52;;;;;;;;;;5004179;28;20393;-36
2022/01/19 11:21:39;;;;;;;33.33;8.73;;;;;;;;;;5012977;28;20029;-39
2022/01/19 11:24:11;;;;;;;37.20;8.45;;;;;;;;;;5003670;28;20092;-36
2022/01/19 11:26:37;;;;;;;41.47;8.70;;;;;;;;;;5005012;28;20053;-36
2022/01/19 11:29:18;;;;;;;36.58;8.68;;;;;;;;;;5004039;28;20034;-34
2022/01/19 11:31:44;;;;;;;29.60;8.75;;;;;;;;;;5005384;28;20037;-35
2022/01/19 11:34:09;;;;;;;32.83;11.23;;;;;;;;;;5004880;28;20064;-37
2022/01/19 11:36:37;;;;;;;33.55;13.45;;;;;;;;;;5001216;28;20038;-38
2022/01/19 11:39:17;;;;;;;32.30;13.15;;;;;;;;;;4999037;28;20077;-36
2022/01/19 11:41:56;;;;;;;33.10;15.45;;;;;;;;;;5002676;28;20160;-35
2022/01/19 11:44:28;;;;;;;37.28;14.98;;;;;;;;;;5002862;28;20026;-37
2022/01/19 11:46:54;;;;;;;36.38;14.57;;;;;;;;;;4993737;28;20879;-36
2022/01/19 11:49:51;;;;;;;38.47;16.05;;;;;;;;;;5006022;28;20026;-36
2022/01/19 11:52:21;;;;;;;40.92;16.15;;;;;;;;;;5010699;28;20041;-36
2022/01/19 11:54:47;;;;;;;42.80;16.95;;;;;;;;;;5015454;28;20510;-37
2022/01/19 11:57:17;;;;;;;32.05;16.42;;;;;;;;;;5007273;28;20038;-33
2022/01/19 11:59:45;;;;;;;40.05;16.80;;;;;;;;;;5004863;28;20037;-35
2022/01/19 12:02:23;;;;;;;36.97;17.45;;;;;;;;;;5004949;28;20142;-38
2022/01/19 12:04:58;;;;;;;32.40;17.50;;;;;;;;;;5004825;28;20042;-40
2022/01/19 12:07:48;;;;;;;35.95;16.38;;;;;;;;;;5002668;28;20030;-36
2022/01/19 12:10:20;;;;;;;36.15;16.77;;;;;;;;;;5002596;28;20034;-37
2022/01/19 12:17:08;;;;;;;35.08;18.40;;;;;;;;;;4986334;28;20088;-40
2022/01/19 12:19:06;;;;;;;39.65;18.77;;;;;;;;;;5007091;28;20041;-41
2022/01/19 12:21:31;;;;;;;37.58;18.13;;;;;;;;;;5003969;28;20041;-35
2022/01/19 12:24:12;;;;;;;26.55;15.48;;;;;;;;;;5004755;28;20033;-38
2022/01/19 12:26:57;;;;;;;30.38;17.70;;;;;;;;;;5003034;28;20116;-38
2022/01/19 12:29:36;;;;;;;33.10;16.48;;;;;;;;;;5004353;28;20890;-39
2022/01/19 12:32:02;;;;;;;31.67;16.60;;;;;;;;;;5004324;28;20109;-39
2022/01/19 12:34:44;;;;;;;32.67;16.55;;;;;;;;;;5006899;28;20542;-37
2022/01/19 12:37:10;;;;;;;37.05;16.73;;;;;;;;;;5014699;28;20037;-36
2022/01/19 12:39:38;;;;;;;30.00;16.33;;;;;;;;;;4997520;28;20501;-36
2022/01/19 12:42:13;;;;;;;30.10;16.13;;;;;;;;;;4998223;28;20037;-38
2022/01/19 12:44:50;;;;;;;25.48;17.00;;;;;;;;;;5006438;28;20491;-37
2022/01/19 12:47:24;;;;;;;35.10;16.92;;;;;;;;;;5013906;28;20037;-38
2022/01/19 12:49:56;;;;;;;31.77;16.73;;;;;;;;;;5024108;28;20086;-37
2022/01/19 12:52:23;;;;;;;29.33;17.10;;;;;;;;;;5014088;28;20038;-36
2022/01/19 12:54:49;;;;;;;29.45;18.05;;;;;;;;;;5001122;28;20041;-36
2022/01/19 12:57:15;;;;;;;38.90;17.30;;;;;;;;;;5003394;28;20038;-31
2022/01/19 12:59:45;;;;;;;29.92;17.40;;;;;;;;;;5003589;28;20034;-34
2022/01/19 13:02:14;;;;;;;33.20;18.23;;;;;;;;;;5000493;28;20030;-37
2022/01/19 13:04:41;;;;;;;26.10;17.48;;;;;;;;;;4999672;28;20120;-37
2022/01/19 13:07:21;;;;;;;28.70;17.60;;;;;;;;;;5003608;28;20129;-38
2022/01/19 13:10:24;;;;;;;26.42;15.82;;;;;;;;;;5001551;28;20026;-39
2022/01/19 13:15:38;;;;;;;25.25;17.17;;;;;;;;;;4996811;28;20508;-36
2022/01/19 13:18:04;;;;;;;25.33;15.80;;;;;;;;;;4983773;28;20037;-36
2022/01/19 13:20:31;;;;;;;33.28;16.98;;;;;;;;;;4984070;28;20026;-34
2022/01/19 13:22:56;;;;;;;26.10;15.55;;;;;;;;;;4991099;28;20125;-40
2022/01/19 13:25:26;;;;;;;26.20;14.90;;;;;;;;;;5002847;28;20030;-39
2022/01/19 13:27:56;;;;;;;28.35;15.65;;;;;;;;;;5003318;28;20056;-40
2022/01/19 13:30:23;;;;;;;29.10;15.10;;;;;;;;;;5003892;28;20029;-36
2022/01/19 13:32:48;;;;;;;25.92;14.45;;;;;;;;;;5003525;28;20523;-34
2022/01/19 13:35:17;;;;;;;36.20;15.57;;;;;;;;;;5003162;28;20104;-36
2022/01/19 13:37:51;;;;;;;32.42;15.05;;;;;;;;;;5002950;28;20055;-36
2022/01/19 13:40:20;;;;;;;29.83;15.85;;;;;;;;;;5003025;28;20038;-33
2022/01/19 13:42:48;;;;;;;29.48;15.80;;;;;;;;;;4998546;28;20038;-39
2022/01/19 13:45:31;;;;;;;31.02;16.38;;;;;;;;;;4997604;28;20108;-37
2022/01/19 13:48:18;;;;;;;25.30;15.52;;;;;;;;;;5003618;28;20045;-37
2022/01/19 13:50:49;;;;;;;29.02;17.17;;;;;;;;;;5002021;28;20390;-39
2022/01/19 13:53:15;;;;;;;29.08;18.42;;;;;;;;;;5002671;28;20520;-40
2022/01/19 13:55:40;;;;;;;34.08;18.80;;;;;;;;;;4998303;28;20779;-34
2022/01/19 13:58:14;;;;;;;30.20;17.90;;;;;;;;;;4999724;28;20040;-38
2022/01/19 14:00:53;;;;;;;31.52;19.98;;;;;;;;;;5000910;28;20404;-34
2022/01/19 14:03:19;;;;;;;29.83;18.92;;;;;;;;;;4992508;28;20040;-37
2022/01/19 14:05:47;;;;;;;29.02;20.02;;;;;;;;;;4983626;28;20065;-36
2022/01/19 14:08:12;;;;;;;30.90;20.20;;;;;;;;;;4983020;28;20465;-35
2022/01/19 14:10:50;;;;;;;28.55;20.90;;;;;;;;;;4992068;28;20112;-37
2022/01/19 14:13:23;;;;;;;32.78;23.60;;;;;;;;;;4990008;28;20030;-41
2022/01/19 14:15:49;;;;;;;30.80;22.92;;;;;;;;;;4997579;28;20033;-40
2022/01/19 14:18:14;;;;;;;36.72;23.48;;;;;;;;;;5002744;28;20500;-40
2022/01/19 14:20:40;;;;;;;38.53;24.42;;;;;;;;;;5002463;28;20627;-40
2022/01/19 14:23:13;;;;;;;35.70;25.10;;;;;;;;;;4991584;28;20099;-38
2022/01/19 14:25:38;;;;;;;35.85;26.92;;;;;;;;;;4983167;28;20157;-37
2022/01/19 14:28:15;;;;;;;31.80;25.65;;;;;;;;;;5002713;28;20540;-36
2022/01/19 14:30:42;;;;;;;32.22;25.70;;;;;;;;;;5001163;28;20080;-39
2022/01/19 14:33:12;;;;;;;37.72;25.88;;;;;;;;;;5002643;28;20058;-39
2022/01/19 14:35:41;;;;;;;35.85;26.30;;;;;;;;;;4990217;28;20781;-35
2022/01/19 14:38:32;;;;;;;33.65;25.77;;;;;;;;;;5006926;28;20131;-37
2022/01/19 14:41:08;;;;;;;30.92;25.63;;;;;;;;;;5002049;28;20038;-38
2022/01/19 14:43:43;;;;;;;32.53;25.27;;;;;;;;;;5001949;28;20042;-40
2022/01/19 14:46:12;;;;;;;32.42;25.30;;;;;;;;;;5002588;28;20838;-36
2022/01/19 14:48:45;;;;;;;32.13;25.55;;;;;;;;;;5002119;28;20037;-35
2022/01/19 14:51:27;;;;;;;41.83;26.25;;;;;;;;;;5001053;28;20014;-35
2022/01/19 14:54:06;;;;;;;30.48;24.88;;;;;;;;;;5002096;28;20034;-39
2022/01/19 14:56:31;;;;;;;31.70;24.15;;;;;;;;;;4999462;28;20614;-36
2022/01/19 14:59:13;;;;;;;29.90;23.98;;;;;;;;;;5001268;28;20033;-40
2022/01/19 15:01:43;;;;;;;33.88;25.38;;;;;;;;;;5003004;28;20080;-41
2022/01/19 15:04:09;;;;;;;31.73;23.98;;;;;;;;;;5005650;28;20531;-40
2022/01/19 15:06:35;;;;;;;29.85;24.33;;;;;;;;;;5002987;28;20068;-36
2022/01/19 15:09:01;;;;;;;33.45;23.85;;;;;;;;;;5004491;28;20036;-40
2022/01/19 15:11:26;;;;;;;32.03;23.50;;;;;;;;;;4987327;28;20038;-39
2022/01/19 15:13:52;;;;;;;32.55;24.30;;;;;;;;;;4985468;28;20034;-40
2022/01/19 15:16:17;;;;;;;30.15;21.45;;;;;;;;;;4986121;28;20473;-39
2022/01/19 15:18:43;;;;;;;29.52;18.80;;;;;;;;;;5001907;28;20034;-39
2022/01/19 15:21:09;;;;;;;27.38;17.05;;;;;;;;;;5006179;28;20037;-39
2022/01/19 15:23:34;;;;;;;27.10;15.52;;;;;;;;;;5006076;28;20475;-39
2022/01/19 15:26:00;;;;;;;27.75;16.58;;;;;;;;;;4999244;28;20116;-37
2022/01/19 15:28:26;;;;;;;31.83;15.88;;;;;;;;;;4996741;28;20038;-38
2022/01/19 15:30:52;;;;;;;22.25;15.98;;;;;;;;;;5005972;28;20036;-34
2022/01/19 15:33:17;;;;;;;23.40;15.57;;;;;;;;;;5005466;28;20592;-33
2022/01/19 15:35:43;;;;;;;27.25;16.10;;;;;;;;;;5001968;28;20112;-39
2022/01/19 15:38:09;;;;;;;38.47;17.48;;;;;;;;;;5004702;28;20812;-36
2022/01/19 15:40:35;;;;;;;29.80;16.98;;;;;;;;;;5005462;28;20034;-41
2022/01/19 15:43:01;;;;;;;28.05;16.25;;;;;;;;;;4996876;28;20113;-41
2022/01/19 15:45:29;;;;;;;25.88;17.45;;;;;;;;;;4985497;28;20034;-40
2022/01/19 15:47:56;;;;;;;28.83;17.35;;;;;;;;;;4985770;28;20034;-39
2022/01/19 15:50:21;;;;;;;25.98;16.05;;;;;;;;;;4985050;28;20041;-35
2022/01/19 15:52:47;;;;;;;24.80;17.60;;;;;;;;;;4995052;28;20033;-33
2022/01/19 15:55:12;;;;;;;24.33;18.02;;;;;;;;;;4999546;28;20033;-37
2022/01/19 15:57:38;;;;;;;24.60;18.00;;;;;;;;;;5002954;28;20030;-38
2022/01/19 16:00:06;;;;;;;27.58;18.05;;;;;;;;;;5002023;28;20519;-40
2022/01/19 16:02:31;;;;;;;28.15;18.63;;;;;;;;;;5004261;28;20036;-40
2022/01/19 16:04:57;;;;;;;28.77;18.55;;;;;;;;;;5005332;28;20034;-39
2022/01/19 16:07:22;;;;;;;25.13;18.60;;;;;;;;;;5005191;28;20381;-37